createdAt,value
2022-11-01T00:01:58.810Z,27.47
2022-11-01T00:04:26.159Z,26.63
2022-11-01T00:06:53.167Z,33.33
2022-11-01T00:09:20.102Z,25.07
2022-11-01T00:11:47.466Z,22.33
2022-11-01T00:14:16.181Z,23.37
2022-11-01T00:16:43.893Z,27.97
2022-11-01T00:19:11.475Z,25.43
2022-11-01T00:21:38.618Z,31.97
2022-11-01T00:24:05.813Z,28.10
2022-11-01T00:26:32.928Z,24.80
2022-11-01T00:29:00.093Z,43.37
2022-11-01T00:31:27.195Z,33.43
2022-11-01T00:33:54.069Z,24.67
2022-11-01T00:36:21.040Z,34.73
2022-11-01T00:38:51.905Z,35.93
2022-11-01T00:41:20.858Z,43.13
2022-11-01T00:43:48.280Z,63.87
2022-11-01T00:46:15.628Z,34.33
2022-11-01T00:48:42.608Z,40.37
2022-11-01T00:51:09.521Z,28.67
2022-11-01T00:53:36.562Z,47.27
2022-11-01T00:56:05.542Z,40.13
2022-11-01T00:58:32.868Z,21.20
2022-11-01T01:01:00.214Z,59.60
2022-11-01T01:03:27.169Z,28.97
2022-11-01T01:05:54.921Z,32.47
2022-11-01T01:08:22.804Z,52.73
2022-11-01T01:10:49.804Z,24.83
2022-11-01T01:13:17.151Z,28.10
2022-11-01T01:15:44.424Z,28.60
2022-11-01T01:18:11.427Z,28.77
2022-11-01T01:20:38.363Z,30.13
2022-11-01T01:23:05.373Z,31.93
2022-11-01T01:25:32.561Z,25.47
2022-11-01T01:27:59.867Z,30.90
2022-11-01T01:30:27.089Z,20.83
2022-11-01T01:32:54.031Z,23.40
2022-11-01T01:35:20.918Z,21.47
2022-11-01T01:37:47.866Z,24.00
2022-11-01T01:40:14.875Z,23.73
2022-11-01T01:42:43.105Z,23.53
2022-11-01T01:45:31.884Z,20.00
2022-11-01T01:48:26.241Z,19.93
2022-11-01T01:51:04.515Z,18.23
2022-11-01T01:53:42.155Z,22.13
2022-11-01T01:56:13.773Z,20.70
2022-11-01T01:58:49.797Z,15.93
2022-11-01T02:01:17.354Z,17.93
2022-11-01T02:03:45.175Z,21.77
2022-11-01T02:06:15.595Z,20.07
2022-11-01T02:08:46.596Z,17.60
2022-11-01T02:11:15.190Z,17.40
2022-11-01T02:13:42.138Z,17.17
2022-11-01T02:16:39.224Z,19.03
2022-11-01T02:19:24.793Z,16.23
2022-11-01T02:22:07.130Z,21.47
2022-11-01T02:25:01.304Z,23.17
2022-11-01T02:27:49.301Z,20.90
2022-11-01T02:30:23.642Z,21.00
2022-11-01T02:32:58.886Z,17.63
2022-11-01T02:35:44.582Z,16.50
2022-11-01T02:38:17.335Z,19.13
2022-11-01T02:41:11.877Z,20.10
2022-11-01T02:44:05.393Z,16.73
2022-11-01T02:46:58.065Z,17.17
2022-11-01T02:49:40.628Z,21.50
2022-11-01T02:52:11.350Z,18.30
2022-11-01T02:54:45.577Z,16.17
2022-11-01T02:57:31.241Z,21.33
2022-11-01T03:00:05.381Z,20.07
2022-11-01T03:02:44.400Z,21.60
2022-11-01T03:05:16.961Z,19.13
2022-11-01T03:07:50.684Z,19.40
2022-11-01T03:10:21.274Z,18.10
2022-11-01T03:13:29.203Z,25.23
2022-11-01T03:16:19.329Z,21.63
2022-11-01T03:19:01.276Z,21.10
2022-11-01T03:21:32.387Z,18.60
2022-11-01T03:24:12.758Z,24.67
2022-11-01T03:26:42.718Z,23.87
2022-11-01T03:29:11.841Z,22.33
2022-11-01T03:31:40.891Z,20.80
2022-11-01T03:34:15.103Z,18.97
2022-11-01T03:36:52.226Z,21.43
2022-11-01T03:39:24.783Z,20.83
2022-11-01T03:41:58.652Z,18.70
2022-11-01T03:44:30.747Z,22.80
2022-11-01T03:46:57.826Z,21.83
2022-11-01T03:49:24.945Z,21.60
2022-11-01T03:51:52.125Z,24.07
2022-11-01T03:54:19.000Z,19.75
2022-11-01T03:56:46.026Z,18.87
2022-11-01T03:59:13.155Z,22.17
2022-11-01T04:01:40.569Z,21.80
2022-11-01T04:04:07.725Z,20.10
2022-11-01T04:06:34.713Z,19.43
2022-11-01T04:09:01.646Z,17.90
2022-11-01T04:11:28.646Z,19.37
2022-11-01T04:14:15.702Z,21.67
2022-11-01T04:17:01.013Z,19.33
2022-11-01T04:19:46.576Z,27.47
2022-11-01T04:22:13.686Z,22.90
2022-11-01T04:24:40.648Z,21.40
2022-11-01T04:27:07.608Z,23.10
2022-11-01T04:29:34.517Z,22.97
2022-11-01T04:32:02.269Z,23.23
2022-11-01T04:34:44.526Z,22.27
2022-11-01T04:37:12.533Z,20.93
2022-11-01T04:39:39.533Z,23.03
2022-11-01T04:42:06.537Z,24.50
2022-11-01T04:44:33.543Z,26.43
2022-11-01T04:47:00.470Z,23.60
2022-11-01T04:49:27.401Z,26.45
2022-11-01T04:51:54.337Z,24.03
2022-11-01T04:54:21.478Z,27.10
2022-11-01T04:56:48.476Z,29.50
2022-11-01T04:59:15.469Z,26.05
2022-11-01T05:01:42.490Z,24.05
2022-11-01T05:04:09.444Z,22.90
2022-11-01T05:06:36.427Z,23.05
2022-11-01T05:09:03.351Z,23.20
2022-11-01T10:05:06.034Z,4.23
2022-11-01T10:08:09.270Z,5.37
2022-11-01T10:10:52.100Z,4.53
2022-11-01T10:13:55.542Z,9.23
2022-11-01T10:16:32.426Z,6.67
2022-11-01T10:19:18.868Z,5.03
2022-11-01T10:21:56.810Z,2.57
2022-11-01T10:24:45.341Z,5.97
2022-11-01T10:27:34.542Z,8.07
2022-11-01T10:30:08.648Z,4.03
2022-11-01T10:32:55.687Z,5.43
2022-11-01T10:35:35.382Z,4.50
2022-11-01T10:38:24.979Z,6.67
2022-11-01T10:41:31.170Z,5.80
2022-11-01T10:44:02.494Z,3.43
2022-11-01T10:46:40.319Z,6.87
2022-11-01T10:49:53.013Z,3.70
2022-11-01T10:52:25.046Z,5.20
2022-11-01T10:54:53.768Z,4.33
2022-11-01T10:57:41.848Z,8.00
2022-11-01T11:00:16.521Z,5.90
2022-11-01T11:02:47.542Z,5.60
2022-11-01T11:05:15.862Z,5.83
2022-11-01T11:07:44.214Z,7.03
2022-11-01T11:10:28.374Z,7.20
2022-11-01T11:13:02.310Z,8.33
2022-11-01T11:15:47.066Z,4.37
2022-11-01T11:18:30.687Z,7.03
2022-11-01T11:21:00.504Z,8.07
2022-11-01T11:23:29.747Z,6.93
2022-11-01T11:26:05.317Z,6.83
2022-11-01T11:28:35.406Z,3.87
2022-11-01T11:31:15.742Z,7.33
2022-11-01T11:33:50.264Z,6.40
2022-11-01T11:36:18.858Z,3.63
2022-11-01T11:38:49.104Z,6.93
2022-11-01T11:41:28.703Z,7.97
2022-11-01T11:43:55.860Z,4.17
2022-11-01T11:46:24.849Z,7.97
2022-11-01T11:49:04.678Z,6.07
2022-11-01T11:51:37.702Z,5.10
2022-11-01T11:54:22.007Z,6.50
2022-11-01T11:57:07.608Z,9.67
2022-11-01T11:59:35.563Z,5.93
2022-11-01T12:02:05.741Z,5.63
2022-11-01T12:05:00.673Z,6.87
2022-11-01T12:07:30.818Z,5.30
2022-11-01T12:10:04.641Z,4.90
2022-11-01T12:12:40.701Z,6.67
2022-11-01T12:15:26.826Z,4.43
2022-11-01T12:17:54.450Z,3.50
2022-11-01T12:20:26.618Z,6.20
2022-11-01T12:22:56.590Z,7.67
2022-11-01T12:25:25.138Z,6.83
2022-11-01T12:28:02.034Z,5.17
2022-11-01T12:30:34.220Z,11.47
2022-11-01T12:33:32.610Z,5.03
2022-11-01T12:36:00.085Z,6.50
2022-11-01T12:38:53.606Z,3.00
2022-11-01T12:41:34.457Z,7.67
2022-11-01T12:44:20.911Z,5.33
2022-11-01T12:46:57.511Z,4.60
2022-11-01T12:49:40.774Z,7.43
2022-11-01T12:52:35.274Z,9.33
2022-11-01T12:55:31.234Z,4.57
2022-11-01T12:57:58.842Z,5.57
2022-11-01T13:00:42.650Z,7.03
2022-11-01T13:03:51.752Z,5.30
2022-11-01T13:06:53.205Z,6.93
2022-11-01T13:09:32.632Z,4.53
2022-11-01T13:12:08.365Z,7.73
2022-11-01T13:15:10.849Z,7.00
2022-11-01T13:17:54.031Z,9.87
2022-11-01T13:20:29.221Z,11.47
2022-11-01T13:23:02.325Z,9.13
2022-11-01T13:25:50.253Z,5.63
2022-11-01T13:28:46.863Z,6.43
2022-11-01T13:31:37.310Z,4.47
2022-11-01T13:34:26.298Z,6.60
2022-11-01T13:37:06.910Z,6.17
2022-11-01T13:39:51.496Z,4.23
2022-11-01T13:42:22.569Z,6.63
2022-11-01T13:45:07.974Z,6.63
2022-11-01T13:48:12.459Z,7.20
2022-11-01T13:50:58.520Z,7.20
2022-11-01T13:53:25.673Z,7.57
2022-11-01T13:55:59.230Z,5.97
2022-11-01T13:58:27.312Z,9.47
2022-11-01T14:00:56.289Z,8.43
2022-11-01T14:03:33.197Z,4.37
2022-11-01T14:06:11.978Z,4.97
2022-11-01T14:08:47.600Z,5.67
2022-11-01T14:11:51.003Z,7.33
2022-11-01T14:14:30.433Z,3.23
2022-11-01T14:17:16.348Z,4.63
2022-11-01T14:19:45.047Z,8.27
2022-11-01T14:22:28.350Z,5.77
2022-11-01T14:24:58.504Z,2.83
2022-11-01T14:27:28.354Z,4.50
2022-11-01T14:29:56.529Z,3.57
2022-11-01T14:32:27.162Z,6.87
2022-11-01T14:35:12.019Z,6.73
2022-11-01T14:37:48.642Z,6.97
2022-11-01T14:40:21.646Z,6.57
2022-11-01T14:42:50.507Z,6.90
2022-11-01T14:45:23.228Z,7.40
2022-11-01T14:47:52.618Z,6.97
2022-11-01T14:50:26.507Z,6.93
2022-11-01T14:53:25.687Z,3.47
2022-11-01T14:56:21.791Z,8.73
2022-11-01T14:58:49.518Z,7.67
2022-11-01T15:01:23.531Z,7.00
2022-11-01T15:03:58.819Z,4.87
2022-11-01T15:06:30.510Z,6.73
2022-11-01T15:09:03.872Z,6.57
2022-11-01T15:11:33.452Z,9.37
2022-11-01T15:14:06.117Z,8.60
2022-11-01T15:16:35.465Z,7.90
2022-11-01T15:19:14.205Z,5.37
2022-11-01T15:21:47.378Z,8.37
2022-11-01T15:24:24.200Z,5.60
2022-11-01T15:26:51.986Z,8.00
2022-11-01T15:29:25.551Z,6.00
2022-11-01T15:31:58.039Z,4.60
2022-11-01T15:34:27.989Z,8.33
2022-11-01T15:36:55.297Z,10.80
2022-11-01T15:39:25.119Z,6.83
2022-11-01T15:41:55.181Z,9.13
2022-11-01T15:44:27.800Z,8.37
2022-11-01T15:47:02.054Z,9.93
2022-11-01T15:49:45.057Z,6.83
2022-11-01T15:52:19.040Z,6.60
2022-11-01T15:54:59.670Z,6.03
2022-11-01T15:57:55.167Z,9.17
2022-11-01T16:00:33.801Z,5.53
2022-11-01T16:03:12.823Z,7.47
2022-11-01T16:06:01.766Z,8.17
2022-11-01T16:08:31.278Z,9.93
2022-11-01T16:10:59.113Z,8.57
2022-11-01T16:13:26.557Z,15.30
2022-11-01T16:16:03.254Z,6.83
2022-11-01T16:18:35.283Z,11.57
2022-11-01T16:21:08.973Z,8.63
2022-11-01T16:23:36.848Z,9.00
2022-11-01T16:26:07.768Z,9.47
2022-11-01T16:28:45.202Z,8.67
2022-11-01T16:31:28.856Z,9.80
2022-11-01T16:33:58.861Z,23.83
2022-11-01T16:36:37.706Z,19.70
2022-11-01T16:39:28.667Z,17.97
2022-11-01T16:41:56.401Z,15.47
2022-11-01T16:44:24.098Z,19.80
2022-11-01T16:46:52.754Z,18.53
2022-11-01T16:49:24.913Z,17.30
2022-11-01T16:51:53.304Z,21.27
2022-11-01T16:54:20.207Z,19.47
2022-11-01T16:56:53.264Z,19.13
2022-11-01T16:59:29.154Z,17.17
2022-11-01T17:01:58.507Z,15.17
2022-11-01T17:04:27.002Z,20.60
2022-11-01T17:06:55.678Z,16.57
2022-11-01T17:09:22.877Z,21.53
2022-11-01T17:11:54.370Z,33.40
2022-11-01T17:14:22.170Z,24.20
2022-11-01T17:16:51.145Z,20.13
2022-11-01T17:19:31.984Z,34.23
2022-11-01T17:22:02.754Z,32.97
2022-11-01T17:24:33.265Z,31.20
2022-11-01T17:27:05.148Z,37.43
2022-11-01T17:29:33.090Z,37.27
2022-11-01T17:32:01.462Z,32.73
2022-11-01T17:34:29.593Z,27.03
2022-11-01T17:36:57.523Z,26.57
2022-11-01T17:39:27.668Z,20.43
2022-11-01T17:41:55.211Z,19.27
2022-11-01T17:44:22.852Z,22.03
2022-11-01T17:46:49.867Z,18.70
2022-11-01T17:49:21.463Z,23.90
2022-11-01T17:51:54.154Z,28.23
2022-11-01T17:56:52.536Z,24.53
2022-11-01T17:59:19.570Z,15.43
2022-11-01T18:01:47.276Z,16.63
2022-11-01T18:04:14.486Z,17.53
2022-11-01T18:06:42.389Z,18.73
2022-11-01T18:09:24.288Z,12.23
2022-11-01T18:12:05.729Z,15.30
2022-11-01T18:14:48.034Z,14.57
2022-11-01T18:17:39.939Z,19.23
2022-11-01T18:20:24.941Z,16.77
2022-11-01T18:23:01.899Z,16.00
2022-11-01T18:25:36.483Z,18.30
2022-11-01T18:28:15.951Z,13.00
2022-11-01T18:30:51.127Z,14.77
2022-11-01T18:33:23.875Z,13.80
2022-11-01T18:36:00.609Z,14.57
2022-11-01T18:38:37.123Z,11.43
2022-11-01T18:41:08.103Z,13.70
2022-11-01T18:43:39.444Z,10.47
2022-11-01T18:46:27.363Z,8.27
2022-11-01T18:49:01.165Z,13.97
2022-11-01T18:51:31.346Z,8.60
2022-11-01T18:54:22.804Z,15.70
2022-11-01T18:56:53.678Z,11.97
2022-11-01T18:59:37.200Z,13.77
2022-11-01T19:02:27.555Z,9.17
2022-11-01T19:05:19.654Z,8.50
2022-11-01T19:08:10.074Z,14.87
2022-11-01T19:10:41.682Z,15.93
2022-11-01T19:13:35.809Z,15.63
2022-11-01T19:16:06.453Z,15.03
2022-11-01T19:18:36.123Z,21.33
2022-11-01T19:21:14.071Z,22.23
2022-11-01T19:23:43.285Z,17.23
2022-11-01T19:26:36.094Z,20.97
2022-11-01T19:29:26.047Z,23.43
2022-11-01T19:31:56.627Z,29.80
2022-11-01T19:34:27.782Z,22.43
2022-11-01T19:36:55.557Z,20.17
2022-11-01T19:39:29.932Z,17.30
2022-11-01T19:42:25.310Z,16.90
2022-11-01T19:45:10.325Z,12.50
2022-11-01T19:47:40.343Z,11.90
2022-11-01T19:50:43.807Z,12.87
2022-11-01T19:53:18.800Z,14.90
2022-11-01T19:56:02.744Z,9.90
2022-11-01T19:58:52.621Z,10.47
2022-11-01T20:01:25.843Z,9.10
2022-11-01T20:04:01.290Z,12.10
2022-11-01T20:06:30.878Z,9.87
2022-11-01T20:09:15.958Z,7.73
2022-11-01T20:11:42.960Z,11.30
2022-11-01T20:14:09.950Z,11.83
2022-11-01T20:16:36.973Z,8.87
2022-11-01T20:19:03.953Z,9.13
2022-11-01T20:21:30.922Z,10.87
2022-11-01T20:23:58.913Z,12.63
2022-11-01T20:26:26.531Z,11.13
2022-11-01T20:28:53.413Z,10.47
2022-11-01T20:31:20.666Z,11.53
2022-11-01T20:33:47.755Z,12.30
2022-11-01T20:36:14.830Z,11.10
2022-11-01T20:38:41.978Z,10.53
2022-11-01T20:41:09.009Z,7.90
2022-11-01T20:43:36.051Z,12.77
2022-11-01T20:46:03.025Z,10.87
2022-11-01T20:48:30.379Z,14.00
2022-11-01T20:51:00.126Z,10.20
2022-11-01T20:53:29.638Z,8.57
2022-11-01T20:55:56.980Z,9.80
2022-11-01T20:58:23.970Z,9.97
2022-11-01T21:00:53.711Z,11.63
2022-11-01T21:03:22.172Z,8.13
2022-11-01T21:05:50.556Z,7.87
2022-11-01T21:08:28.048Z,10.70
2022-11-01T21:11:02.334Z,11.17
2022-11-01T21:13:31.403Z,8.03
2022-11-01T21:16:00.045Z,9.97
2022-11-01T21:21:58.478Z,12.67
2022-11-01T21:24:31.376Z,10.23
2022-11-01T21:27:13.435Z,15.53
2022-11-01T21:29:43.435Z,15.70
2022-11-01T21:32:29.978Z,12.23
2022-11-01T21:34:58.387Z,13.30
2022-11-01T21:37:29.780Z,16.57
2022-11-01T21:40:04.850Z,16.03
2022-11-01T21:42:36.528Z,15.93
2022-11-01T21:45:33.096Z,16.47
2022-11-01T21:48:14.129Z,19.03
2022-11-01T21:50:41.156Z,16.97
2022-11-01T21:53:08.030Z,16.83
2022-11-01T21:55:34.987Z,17.40
